Time;durP1;ratioP1;P1;durP2;ratioP2;P2;SDS_P1;SDS_P2;PMS_P1;PMS_P2;Temp;Humidity;BMP_temperature;BMP_pressure;BME280_temperature;BME280_humidity;BME280_pressure;Samples;Min_cycle;Max_cycle;Signal;HPM_P1;HPM_P2
2021/03/01 00:02:04;;;;;;;13.45;12.00;;;;;;;;;;5026950;28;20176;-80
2021/03/01 00:04:33;;;;;;;18.63;11.65;;;;;;;;;;5018251;28;20259;-82
2021/03/01 00:07:09;;;;;;;15.13;11.32;;;;;;;;;;5020218;28;20186;-79
2021/03/01 00:09:35;;;;;;;15.73;11.85;;;;;;;;;;5000390;28;20172;-80
2021/03/01 00:12:10;;;;;;;14.85;11.60;;;;;;;;;;5021645;28;20168;-81
2021/03/01 00:14:39;;;;;;;18.83;13.85;;;;;;;;;;5018181;28;20144;-81
2021/03/01 00:17:21;;;;;;;;;;;;;;;;;;;;;
2021/03/01 00:19:49;;;;;;;11.82;10.32;;;;;;;;;;5004426;28;20160;-82
2021/03/01 00:22:18;;;;;;;13.25;11.75;;;;;;;;;;5021859;28;20172;-79
2021/03/01 00:24:47;;;;;;;14.63;10.40;;;;;;;;;;5035648;28;20226;-79
2021/03/01 00:27:25;;;;;;;23.23;11.20;;;;;;;;;;5001632;28;20242;-83
2021/03/01 00:30:11;;;;;;;;;;;;;;;;;;;;;
2021/03/01 00:32:40;;;;;;;15.98;11.98;;;;;;;;;;5020036;28;20181;-81
2021/03/01 00:35:07;;;;;;;12.90;10.63;;;;;;;;;;5018766;28;20168;-80
2021/03/01 00:37:37;;;;;;;18.27;11.82;;;;;;;;;;5019420;28;20664;-82
2021/03/01 00:40:06;;;;;;;17.08;11.40;;;;;;;;;;5017874;28;20656;-81
2021/03/01 00:42:33;;;;;;;16.35;10.40;;;;;;;;;;5001167;28;20292;-80
2021/03/01 00:44:59;;;;;;;17.23;11.95;;;;;;;;;;5003338;28;20549;-81
2021/03/01 00:47:31;;;;;;;17.00;12.43;;;;;;;;;;5033114;28;20160;-80
2021/03/01 00:50:18;;;;;;;;;;;;;;;;;;;;;
2021/03/01 00:52:55;;;;;;;15.32;12.40;;;;;;;;;;5008767;28;20167;-80
2021/03/01 00:55:27;;;;;;;12.43;11.15;;;;;;;;;;5020421;28;20202;-80
2021/03/01 00:57:58;;;;;;;16.75;12.30;;;;;;;;;;5001273;28;20171;-81
2021/03/01 01:00:24;;;;;;;14.02;11.35;;;;;;;;;;5035182;28;20172;-79
2021/03/01 01:03:22;;;;;;;;;;;;;;;;;;;;;
2021/03/01 01:06:15;;;;;;;21.23;12.63;;;;;;;;;;5033877;28;20234;-81
2021/03/01 01:08:50;;;;;;;17.25;12.10;;;;;;;;;;5018207;28;20171;-81
2021/03/01 01:11:45;;;;;;;;;;;;;;;;;;;;;
2021/03/01 01:14:14;;;;;;;17.48;14.18;;;;;;;;;;4999320;28;20180;-81
2021/03/01 01:16:41;;;;;;;14.50;11.25;;;;;;;;;;5020275;28;20230;-79
2021/03/01 01:19:27;;;;;;;15.18;12.32;;;;;;;;;;5020643;28;20274;-80
2021/03/01 01:21:54;;;;;;;19.02;12.85;;;;;;;;;;5001581;28;20186;-81
2021/03/01 01:24:38;;;;;;;;;;;;;;;;;;;;;
2021/03/01 01:27:15;;;;;;;;;;;;;;;;;;;;;
2021/03/01 01:29:50;;;;;;;16.40;13.13;;;;;;;;;;5001359;28;20168;-80
2021/03/01 01:32:24;;;;;;;19.98;13.52;;;;;;;;;;5019472;28;20164;-80
2021/03/01 01:35:07;;;;;;;;;;;;;;;;;;;;;
2021/03/01 01:37:36;;;;;;;17.80;13.02;;;;;;;;;;5020761;28;20215;-80
2021/03/01 01:40:07;;;;;;;16.77;10.90;;;;;;;;;;4987803;28;20192;-80
2021/03/01 01:42:42;;;;;;;14.93;12.35;;;;;;;;;;5021627;28;20307;-80
2021/03/01 01:45:19;;;;;;;14.35;11.55;;;;;;;;;;5038402;28;20258;-79
2021/03/01 01:47:58;;;;;;;21.15;15.10;;;;;;;;;;5019544;28;20241;-80
2021/03/01 01:50:26;;;;;;;13.82;11.18;;;;;;;;;;5022386;28;20169;-79
2021/03/01 01:52:53;;;;;;;15.85;10.23;;;;;;;;;;4990617;28;20191;-79
2021/03/01 01:55:29;;;;;;;18.50;14.18;;;;;;;;;;5023131;28;20188;-80
2021/03/01 01:58:05;;;;;;;13.85;12.45;;;;;;;;;;5001142;28;20180;-81
2021/03/01 02:00:49;;;;;;;16.83;13.05;;;;;;;;;;5022259;28;20198;-80
2021/03/01 02:03:54;;;;;;;;;;;;;;;;;;;;;
2021/03/01 02:06:47;;;;;;;18.08;12.32;;;;;;;;;;5023959;28;20263;-82
2021/03/01 02:09:21;;;;;;;17.88;12.73;;;;;;;;;;5023893;28;20164;-79
2021/03/01 02:11:53;;;;;;;17.60;12.23;;;;;;;;;;5030197;28;20207;-81
2021/03/01 02:14:30;;;;;;;14.65;12.40;;;;;;;;;;5029759;28;20164;-82
2021/03/01 02:16:59;;;;;;;14.18;10.73;;;;;;;;;;5004236;28;20199;-81
2021/03/01 02:19:34;;;;;;;14.90;12.65;;;;;;;;;;5006512;28;20171;-82
2021/03/01 02:22:03;;;;;;;17.13;11.57;;;;;;;;;;5039415;28;20175;-81
2021/03/01 02:24:36;;;;;;;18.92;15.15;;;;;;;;;;5030683;28;20204;-81
2021/03/01 02:27:11;;;;;;;18.88;12.80;;;;;;;;;;5029507;28;20180;-80
2021/03/01 02:29:39;;;;;;;15.23;13.48;;;;;;;;;;5024728;28;20148;-81
2021/03/01 02:32:08;;;;;;;18.75;12.73;;;;;;;;;;5005506;28;20161;-80
2021/03/01 02:34:38;;;;;;;20.45;13.55;;;;;;;;;;5005961;28;20172;-80
2021/03/01 02:37:10;;;;;;;16.63;13.20;;;;;;;;;;5005595;28;20198;-80
2021/03/01 02:39:38;;;;;;;17.08;13.88;;;;;;;;;;5021910;28;20160;-82
2021/03/01 02:42:17;;;;;;;21.58;12.52;;;;;;;;;;5020471;28;20254;-80
2021/03/01 02:44:53;;;;;;;20.20;14.98;;;;;;;;;;5019859;28;20190;-80
2021/03/01 02:47:20;;;;;;;18.05;13.35;;;;;;;;;;5033800;28;20191;-79
2021/03/01 02:49:56;;;;;;;18.40;12.88;;;;;;;;;;5001857;28;20263;-80
2021/03/01 02:52:23;;;;;;;18.63;14.45;;;;;;;;;;5001816;28;20507;-80
2021/03/01 02:55:09;;;;;;;;;;;;;;;;;;;;;
2021/03/01 02:57:53;;;;;;;18.05;12.45;;;;;;;;;;5019028;28;20501;-80
2021/03/01 03:00:23;;;;;;;15.82;11.43;;;;;;;;;;5018695;28;20586;-80
2021/03/01 03:02:50;;;;;;;18.20;13.75;;;;;;;;;;5033839;28;20199;-81
2021/03/01 03:05:22;;;;;;;15.70;12.25;;;;;;;;;;5018409;28;20160;-81
2021/03/01 03:07:49;;;;;;;22.55;13.23;;;;;;;;;;4987058;28;20176;-80
2021/03/01 03:10:18;;;;;;;21.92;13.88;;;;;;;;;;5017929;28;20161;-80
2021/03/01 03:13:06;;;;;;;;;;;;;;;;;;;;;
2021/03/01 03:15:36;;;;;;;21.55;13.85;;;;;;;;;;5022156;28;20226;-78
2021/03/01 03:18:16;;;;;;;15.55;11.90;;;;;;;;;;5026587;28;20232;-78
2021/03/01 03:20:47;;;;;;;15.20;11.60;;;;;;;;;;5023180;28;20160;-80
2021/03/01 03:23:26;;;;;;;;;;;;;;;;;;;;;
2021/03/01 03:25:53;;;;;;;18.42;13.55;;;;;;;;;;5019286;28;20238;-81
2021/03/01 03:28:19;;;;;;;18.45;13.02;;;;;;;;;;5035007;28;20218;-81
2021/03/01 03:30:49;;;;;;;15.65;12.20;;;;;;;;;;5034436;28;20555;-80
2021/03/01 03:33:16;;;;;;;17.27;14.23;;;;;;;;;;5035518;28;20172;-82
2021/03/01 03:35:45;;;;;;;15.68;12.30;;;;;;;;;;5035229;28;20198;-78
2021/03/01 03:38:22;;;;;;;16.73;13.30;;;;;;;;;;5003733;28;20546;-81
2021/03/01 03:40:50;;;;;;;16.17;12.80;;;;;;;;;;5024417;28;20160;-80
2021/03/01 03:43:16;;;;;;;16.50;14.32;;;;;;;;;;5025259;28;20200;-79
2021/03/01 03:45:45;;;;;;;25.83;15.10;;;;;;;;;;5025168;28;20242;-78
2021/03/01 03:48:12;;;;;;;18.02;13.85;;;;;;;;;;5024718;28;20176;-78
2021/03/01 03:50:41;;;;;;;19.02;13.60;;;;;;;;;;5023196;28;20164;-79
2021/03/01 03:53:09;;;;;;;20.55;13.95;;;;;;;;;;5005457;28;20187;-78
2021/03/01 03:55:37;;;;;;;19.77;13.95;;;;;;;;;;5023406;28;20664;-79
2021/03/01 03:58:06;;;;;;;15.70;13.30;;;;;;;;;;5024706;28;20168;-80
2021/03/01 04:00:36;;;;;;;16.90;13.15;;;;;;;;;;5028551;28;20172;-81
2021/03/01 04:03:07;;;;;;;18.42;14.07;;;;;;;;;;5024005;28;20282;-79
2021/03/01 04:05:34;;;;;;;18.30;11.90;;;;;;;;;;5006302;28;20550;-82
2021/03/01 04:08:00;;;;;;;16.35;13.60;;;;;;;;;;5006693;28;20163;-81
2021/03/01 04:10:34;;;;;;;19.33;14.00;;;;;;;;;;5038041;28;20172;-78
2021/03/01 04:13:09;;;;;;;16.67;12.52;;;;;;;;;;5024503;28;20198;-80
2021/03/01 04:15:37;;;;;;;17.83;14.80;;;;;;;;;;5034646;28;20187;-82
2021/03/01 04:18:05;;;;;;;19.75;14.70;;;;;;;;;;5019799;28;20529;-82
2021/03/01 04:20:35;;;;;;;18.58;16.55;;;;;;;;;;5035760;28;20238;-82
2021/03/01 04:23:02;;;;;;;14.02;11.85;;;;;;;;;;5034215;28;20190;-80
2021/03/01 04:25:29;;;;;;;20.98;15.32;;;;;;;;;;5020658;28;20191;-83
2021/03/01 04:27:55;;;;;;;18.73;14.93;;;;;;;;;;5019897;28;20522;-81
2021/03/01 04:30:22;;;;;;;19.40;13.77;;;;;;;;;;5019733;28;20226;-80
2021/03/01 04:32:51;;;;;;;20.90;14.43;;;;;;;;;;5005699;28;20172;-81
2021/03/01 04:37:57;;;;;;;18.77;14.65;;;;;;;;;;5018447;28;20217;-79
2021/03/01 04:40:23;;;;;;;17.05;12.55;;;;;;;;;;5037427;28;20156;-80
2021/03/01 04:42:50;;;;;;;19.65;14.98;;;;;;;;;;5021039;28;20561;-79
2021/03/01 04:45:19;;;;;;;18.50;13.32;;;;;;;;;;5019710;28;20282;-80
2021/03/01 04:47:49;;;;;;;17.00;13.40;;;;;;;;;;5018737;28;20322;-80
2021/03/01 04:50:16;;;;;;;14.52;12.00;;;;;;;;;;5020256;28;20175;-80
2021/03/01 04:52:45;;;;;;;16.55;13.38;;;;;;;;;;5004068;28;20199;-80
2021/03/01 04:55:14;;;;;;;18.88;13.88;;;;;;;;;;5007757;28;20172;-79
2021/03/01 04:57:41;;;;;;;20.30;12.32;;;;;;;;;;5022797;28;20206;-80
2021/03/01 05:00:16;;;;;;;25.42;15.45;;;;;;;;;;5000420;28;20159;-80
2021/03/01 05:02:48;;;;;;;18.45;15.30;;;;;;;;;;5000899;28;20195;-80
2021/03/01 05:05:15;;;;;;;30.00;15.25;;;;;;;;;;5000687;28;20177;-79
2021/03/01 05:07:42;;;;;;;21.40;13.82;;;;;;;;;;5022396;28;20179;-80
2021/03/01 05:10:09;;;;;;;20.42;14.40;;;;;;;;;;4984137;28;20176;-79
2021/03/01 05:12:36;;;;;;;22.92;14.52;;;;;;;;;;5006065;28;20222;-79
2021/03/01 05:15:02;;;;;;;24.13;16.38;;;;;;;;;;5027200;28;20187;-79
2021/03/01 05:17:32;;;;;;;20.50;14.43;;;;;;;;;;5017031;28;20192;-82
2021/03/01 05:20:01;;;;;;;22.00;16.33;;;;;;;;;;5000156;28;20310;-79
2021/03/01 05:22:27;;;;;;;18.70;15.93;;;;;;;;;;5019539;28;20199;-80
2021/03/01 05:24:58;;;;;;;19.13;13.45;;;;;;;;;;5003875;28;20175;-80
2021/03/01 05:27:38;;;;;;;21.85;13.60;;;;;;;;;;5000435;28;20262;-80
2021/03/01 05:30:08;;;;;;;19.73;14.02;;;;;;;;;;5017990;28;20208;-79
2021/03/01 05:32:51;;;;;;;15.20;13.02;;;;;;;;;;5017918;28;20235;-80
2021/03/01 05:35:33;;;;;;;;;;;;;;;;;;;;;
2021/03/01 05:48:45;;;;;;;22.52;15.18;;;;;;;;;;5987870;22;6559851;-80
2021/03/01 05:52:06;;;;;;;;;;;;;;;;;;;;;
2021/03/01 05:54:51;;;;;;;;;;;;;;;;;;;;;
2021/03/01 05:57:44;;;;;;;16.70;13.93;;;;;;;;;;6279306;22;20177;-80
2021/03/01 06:03:05;;;;;;;25.35;17.27;;;;;;;;;;6294911;22;20198;-83
2021/03/01 06:05:47;;;;;;;;;;;;;;;;;;;;;
2021/03/01 06:08:25;;;;;;;20.45;14.38;;;;;;;;;;6269441;22;20487;-82
2021/03/01 06:11:28;;;;;;;;;;;;;;;;;;;;;
2021/03/01 06:14:10;;;;;;;20.92;14.35;;;;;;;;;;6298416;22;20137;-83
2021/03/01 06:17:06;;;;;;;;;;;;;;;;;;;;;
2021/03/01 06:19:58;;;;;;;18.00;14.25;;;;;;;;;;6268996;22;20199;-83
2021/03/01 06:22:25;;;;;;;18.30;16.42;;;;;;;;;;6268569;22;20168;-83
2021/03/01 06:25:30;;;;;;;21.30;14.93;;;;;;;;;;6242690;22;20148;-83
2021/03/01 06:27:58;;;;;;;18.00;13.52;;;;;;;;;;6146639;23;20147;-83
2021/03/01 06:30:44;;;;;;;;;;;;;;;;;;;;;
2021/03/01 06:33:33;;;;;;;26.17;16.07;;;;;;;;;;6268868;22;20536;-83
2021/03/01 06:36:02;;;;;;;21.27;13.95;;;;;;;;;;6267594;22;20766;-84
2021/03/01 06:38:52;;;;;;;21.15;13.65;;;;;;;;;;6296193;22;20160;-83
2021/03/01 06:41:47;;;;;;;;;;;;;;;;;;;;;
2021/03/01 06:44:32;;;;;;;23.13;15.15;;;;;;;;;;6281804;22;20157;-83
2021/03/01 06:47:00;;;;;;;17.38;15.52;;;;;;;;;;6241452;22;20497;-83
2021/03/01 06:49:37;;;;;;;24.17;16.73;;;;;;;;;;6234509;22;20156;-83
2021/03/01 06:52:09;;;;;;;18.17;14.95;;;;;;;;;;6232083;22;20173;-83
2021/03/01 06:54:36;;;;;;;23.63;15.88;;;;;;;;;;6258989;22;20592;-83
2021/03/01 07:29:11;;;;;;;20.23;14.20;;;;;;;;;;6078548;23;20205;-86
2021/03/01 08:03:11;;;;;;;;;;;;;;;;;;;;;
2021/03/01 08:10:46;;;;;;;;;;;;;;;;;;;;;
2021/03/01 08:56:01;;;;;;;22.80;18.67;;;;;;;;;;6222923;23;20711;-81
2021/03/01 08:58:58;;;;;;;18.87;14.87;;;;;;;;;;6223093;23;20397;-82
2021/03/01 09:05:31;;;;;;;15.80;12.30;;;;;;;;;;6134233;23;20400;-81
2021/03/01 09:08:28;;;;;;;17.03;11.23;;;;;;;;;;6149652;22;20435;-82
2021/03/01 09:10:56;;;;;;;19.10;14.47;;;;;;;;;;6287425;22;20388;-82
2021/03/01 09:13:23;;;;;;;15.00;13.40;;;;;;;;;;6256907;22;20384;-80
2021/03/01 09:16:03;;;;;;;;;;;;;;;;;;;;;
2021/03/01 09:18:42;;;;;;;14.53;13.03;;;;;;;;;;6282901;22;20419;-81
2021/03/01 09:21:16;;;;;;;19.00;16.90;;;;;;;;;;6257016;22;20387;-82
2021/03/01 09:23:59;;;;;;;13.27;11.63;;;;;;;;;;6282906;22;20367;-81
2021/03/01 09:26:37;;;;;;;18.87;14.50;;;;;;;;;;6256516;22;20441;-80
2021/03/01 09:29:08;;;;;;;12.43;11.10;;;;;;;;;;6256827;22;20396;-81
2021/03/01 09:31:37;;;;;;;18.43;14.20;;;;;;;;;;6233442;22;20449;-82
2021/03/01 09:34:04;;;;;;;12.60;11.30;;;;;;;;;;6259782;22;20371;-81
2021/03/01 09:36:34;;;;;;;17.93;13.80;;;;;;;;;;6293498;22;20405;-82
2021/03/01 09:39:05;;;;;;;20.47;17.83;;;;;;;;;;6267953;22;20411;-80
2021/03/01 09:41:35;;;;;;;24.17;19.30;;;;;;;;;;6231750;22;20384;-82
2021/03/01 09:44:05;;;;;;;22.40;19.93;;;;;;;;;;6231105;22;20486;-81
2021/03/01 09:46:32;;;;;;;22.50;18.70;;;;;;;;;;6256504;22;20426;-81
2021/03/01 09:49:16;;;;;;;20.67;16.57;;;;;;;;;;6234781;22;20407;-81
2021/03/01 09:52:24;;;;;;;20.00;16.60;;;;;;;;;;6287634;22;20372;-80
2021/03/01 09:54:55;;;;;;;22.73;17.73;;;;;;;;;;6287883;22;20372;-82
2021/03/01 09:57:28;;;;;;;19.07;17.07;;;;;;;;;;6260902;22;20800;-79
2021/03/01 10:00:24;;;;;;;16.87;14.70;;;;;;;;;;6259781;22;20463;-80
2021/03/01 10:02:58;;;;;;;20.43;15.07;;;;;;;;;;6257124;22;20376;-80
2021/03/01 10:05:27;;;;;;;17.97;13.87;;;;;;;;;;6257330;22;20420;-82
2021/03/01 10:08:04;;;;;;;18.10;15.07;;;;;;;;;;6257965;22;20391;-81
2021/03/01 10:10:49;;;;;;;19.00;14.80;;;;;;;;;;6255378;22;20389;-82
2021/03/01 10:13:32;;;;;;;;;;;;;;;;;;;;;
2021/03/01 10:16:04;;;;;;;13.73;12.40;;;;;;;;;;6257589;22;20387;-81
2021/03/01 10:18:32;;;;;;;16.27;13.77;;;;;;;;;;6256463;22;20401;-81
2021/03/01 10:20:59;;;;;;;14.20;12.10;;;;;;;;;;6255846;22;20939;-82
2021/03/01 10:23:39;;;;;;;17.87;13.53;;;;;;;;;;6256946;22;20455;-80
2021/03/01 10:26:06;;;;;;;18.63;13.50;;;;;;;;;;6257665;22;20368;-82
2021/03/01 10:28:34;;;;;;;20.03;13.47;;;;;;;;;;6285671;22;20388;-81
2021/03/01 10:31:04;;;;;;;16.37;12.80;;;;;;;;;;6284644;22;20364;-82
2021/03/01 10:33:47;;;;;;;14.40;12.90;;;;;;;;;;6285890;22;20364;-81
2021/03/01 10:36:13;;;;;;;13.27;11.97;;;;;;;;;;6259088;22;20409;-81
2021/03/01 10:38:52;;;;;;;18.77;10.83;;;;;;;;;;6284975;22;20400;-82
2021/03/01 10:41:22;;;;;;;13.60;10.83;;;;;;;;;;6257630;22;20402;-79
2021/03/01 10:44:02;;;;;;;16.07;11.97;;;;;;;;;;6257688;22;20409;-81
2021/03/01 10:46:36;;;;;;;16.10;12.13;;;;;;;;;;6261669;22;20355;-80
2021/03/01 10:49:03;;;;;;;16.07;14.50;;;;;;;;;;6291406;22;20420;-81
2021/03/01 10:51:29;;;;;;;20.70;15.97;;;;;;;;;;6260134;22;20392;-81
2021/03/01 10:53:55;;;;;;;15.10;13.50;;;;;;;;;;6256928;22;20391;-80
2021/03/01 10:56:22;;;;;;;16.10;14.33;;;;;;;;;;6257195;22;20407;-82
2021/03/01 10:58:50;;;;;;;14.70;11.80;;;;;;;;;;6286883;22;20466;-82
2021/03/01 11:01:18;;;;;;;18.60;13.27;;;;;;;;;;6262368;22;20360;-81
2021/03/01 11:03:46;;;;;;;19.40;15.47;;;;;;;;;;6285423;22;20368;-81
2021/03/01 11:06:22;;;;;;;23.47;13.67;;;;;;;;;;6290401;22;20360;-83
2021/03/01 11:08:48;;;;;;;18.13;14.40;;;;;;;;;;6284798;22;20886;-80
2021/03/01 11:11:15;;;;;;;16.73;13.10;;;;;;;;;;6258197;22;20380;-82
2021/03/01 11:13:41;;;;;;;18.43;13.97;;;;;;;;;;6260015;22;20514;-81
2021/03/01 11:16:07;;;;;;;17.43;14.50;;;;;;;;;;6263717;22;20387;-80
2021/03/01 11:18:34;;;;;;;18.90;13.40;;;;;;;;;;6288505;22;20436;-80
2021/03/01 11:21:00;;;;;;;17.70;13.80;;;;;;;;;;6234696;22;20376;-81
2021/03/01 11:24:08;;;;;;;17.90;14.27;;;;;;;;;;6289622;22;20374;-87
2021/03/01 11:26:43;;;;;;;18.97;14.20;;;;;;;;;;6261595;22;20398;-85
2021/03/01 11:30:06;;;;;;;;;;;;;;;;;;;;;
2021/03/01 11:33:10;;;;;;;13.23;11.13;;;;;;;;;;6164605;23;20456;-84
2021/03/01 11:36:18;;;;;;;12.40;11.07;;;;;;;;;;6134419;23;20392;-84
2021/03/01 11:39:38;;;;;;;14.60;13.00;;;;;;;;;;6179833;22;20448;-88
2021/03/01 11:42:34;;;;;;;18.13;11.97;;;;;;;;;;6258385;23;20345;-85
2021/03/01 11:45:00;;;;;;;12.60;11.30;;;;;;;;;;6230213;23;20473;-84
2021/03/01 11:47:29;;;;;;;14.57;13.07;;;;;;;;;;6230309;23;20389;-84
2021/03/01 11:49:59;;;;;;;14.07;12.33;;;;;;;;;;6232559;23;20393;-86
2021/03/01 11:55:22;;;;;;;13.87;12.43;;;;;;;;;;6244982;22;20849;-84
2021/03/01 11:58:06;;;;;;;13.67;11.80;;;;;;;;;;6231563;23;20421;-83
2021/03/01 12:00:33;;;;;;;13.97;12.33;;;;;;;;;;6256828;23;20427;-84
2021/03/01 12:03:02;;;;;;;18.13;13.30;;;;;;;;;;6198614;23;20449;-83
2021/03/01 12:05:33;;;;;;;14.40;13.00;;;;;;;;;;6196050;23;20385;-82
2021/03/01 12:08:00;;;;;;;15.23;13.57;;;;;;;;;;6196384;23;20467;-84
2021/03/01 12:10:43;;;;;;;;;;;;;;;;;;;;;
2021/03/01 12:14:15;;;;;;;19.37;15.87;;;;;;;;;;6223625;23;20879;-84
2021/03/01 12:16:38;;;;;;;17.40;12.80;;;;;;;;;;6192755;23;20758;-83
2021/03/01 12:19:18;;;;;;;14.37;12.97;;;;;;;;;;6193389;23;20401;-82
2021/03/01 12:21:44;;;;;;;18.43;14.93;;;;;;;;;;6227847;23;20370;-82
2021/03/01 12:24:12;;;;;;;15.70;12.70;;;;;;;;;;6227295;23;20413;-81
2021/03/01 12:26:44;;;;;;;16.77;14.77;;;;;;;;;;6229527;23;20388;-82
2021/03/01 12:33:18;;;;;;;16.70;14.73;;;;;;;;;;6241680;23;20404;-83
2021/03/01 12:35:54;;;;;;;17.77;15.93;;;;;;;;;;6185310;23;20385;-83
2021/03/01 12:38:44;;;;;;;15.47;13.87;;;;;;;;;;6230172;23;20382;-83
2021/03/01 12:44:40;;;;;;;16.70;13.70;;;;;;;;;;6159003;23;20703;-83
2021/03/01 12:50:44;;;;;;;14.90;13.47;;;;;;;;;;6172803;23;20477;-84
2021/03/01 12:57:17;;;;;;;17.42;14.77;;;;;;;;;;6116094;23;20402;-81
2021/03/01 12:59:43;;;;;;;16.23;14.10;;;;;;;;;;6091641;23;20159;-81
2021/03/01 13:02:11;;;;;;;15.97;14.27;;;;;;;;;;6095164;23;20370;-83
2021/03/01 13:04:37;;;;;;;19.53;15.40;;;;;;;;;;6068801;23;20420;-81
2021/03/01 13:07:04;;;;;;;21.90;14.90;;;;;;;;;;6070741;23;20373;-79
2021/03/01 13:09:32;;;;;;;16.93;12.83;;;;;;;;;;6093133;23;20388;-83
2021/03/01 13:12:22;;;;;;;18.10;15.20;;;;;;;;;;6067826;23;20381;-81
2021/03/01 13:14:58;;;;;;;23.97;15.00;;;;;;;;;;6091973;23;20379;-81
2021/03/01 13:17:35;;;;;;;18.60;13.80;;;;;;;;;;6115788;23;20425;-81
2021/03/01 13:20:01;;;;;;;17.17;13.27;;;;;;;;;;6112237;23;20428;-82
2021/03/01 13:22:28;;;;;;;16.50;14.57;;;;;;;;;;6086402;23;20366;-81
2021/03/01 13:24:57;;;;;;;15.20;13.57;;;;;;;;;;6086674;23;20389;-80
2021/03/01 13:27:27;;;;;;;20.50;14.87;;;;;;;;;;6086141;23;20420;-83
2021/03/01 13:29:54;;;;;;;17.10;14.20;;;;;;;;;;6062017;23;20388;-81
2021/03/01 13:32:26;;;;;;;16.47;12.53;;;;;;;;;;6110296;23;20388;-80
2021/03/01 13:34:53;;;;;;;20.17;13.87;;;;;;;;;;6233495;23;20378;-79
2021/03/01 13:37:20;;;;;;;15.43;13.23;;;;;;;;;;6239416;23;20421;-79
2021/03/01 13:39:55;;;;;;;16.17;14.27;;;;;;;;;;6241209;23;20471;-80
2021/03/01 13:42:37;;;;;;;17.77;13.90;;;;;;;;;;6227958;23;20385;-82
2021/03/01 13:49:33;;;;;;;20.30;15.50;;;;;;;;;;6171447;23;20380;-82
2021/03/01 13:52:51;;;;;;;;;;;;;;;;;;;;;
2021/03/01 13:56:13;;;;;;;;;;;;;;;;;;;;;
2021/03/01 13:59:28;;;;;;;16.70;12.70;;;;;;;;;;6126324;23;20389;-79
2021/03/01 14:02:05;;;;;;;15.80;13.17;;;;;;;;;;6125215;23;20364;-83
2021/03/01 14:04:59;;;;;;;15.90;12.33;;;;;;;;;;6084727;23;20392;-81
2021/03/01 14:08:14;;;;;;;14.17;11.60;;;;;;;;;;6073248;23;20391;-82
2021/03/01 14:10:34;;;;;;;;;;;;;;;;;;;;;
2021/03/01 14:13:51;;;;;;;;;;;;;;;;;;;;;
2021/03/01 14:16:40;;;;;;;16.17;11.40;;;;;;;;;;6138937;23;20432;-78
2021/03/01 14:19:18;;;;;;;18.67;12.40;;;;;;;;;;6088685;23;20391;-83
2021/03/01 14:22:25;;;;;;;14.23;12.70;;;;;;;;;;6134252;23;20384;-82
2021/03/01 14:24:57;;;;;;;18.97;12.53;;;;;;;;;;6035326;23;20411;-80
2021/03/01 14:27:26;;;;;;;11.77;10.47;;;;;;;;;;6048554;23;20911;-79
2021/03/01 14:30:18;;;;;;;17.37;12.60;;;;;;;;;;6161248;23;20420;-81
2021/03/01 14:32:59;;;;;;;14.30;11.47;;;;;;;;;;6162408;23;20412;-82
2021/03/01 14:35:28;;;;;;;17.97;10.50;;;;;;;;;;6141739;23;20772;-79
2021/03/01 14:37:55;;;;;;;12.40;11.10;;;;;;;;;;6166662;23;20410;-82
2021/03/01 14:40:33;;;;;;;13.90;12.30;;;;;;;;;;6192653;23;20390;-82
2021/03/01 14:43:36;;;;;;;;;;;;;;;;;;;;;
2021/03/01 14:46:29;;;;;;;15.80;12.90;;;;;;;;;;6175247;23;20378;-85
2021/03/01 14:49:05;;;;;;;;;;;;;;;;;;;;;
2021/03/01 14:51:41;;;;;;;13.50;11.60;;;;;;;;;;6165394;23;20436;-81
2021/03/01 14:54:08;;;;;;;15.20;11.80;;;;;;;;;;6140370;23;20456;-82
2021/03/01 14:56:37;;;;;;;22.97;17.30;;;;;;;;;;6146282;23;20429;-83
2021/03/01 14:59:11;;;;;;;13.40;11.40;;;;;;;;;;6222992;23;20362;-81
2021/03/01 15:01:37;;;;;;;14.77;10.10;;;;;;;;;;6224559;23;20372;-82
2021/03/01 15:04:13;;;;;;;19.40;11.80;;;;;;;;;;6222326;23;20390;-82
2021/03/01 15:06:52;;;;;;;21.60;12.63;;;;;;;;;;6222234;23;20374;-82
2021/03/01 15:09:19;;;;;;;11.37;9.70;;;;;;;;;;6195866;23;20382;-83
2021/03/01 15:11:56;;;;;;;;;;;;;;;;;;;;;
2021/03/01 15:14:22;;;;;;;17.90;11.67;;;;;;;;;;6222869;23;20405;-82
2021/03/01 15:16:49;;;;;;;20.10;12.73;;;;;;;;;;6224290;23;20459;-80
2021/03/01 15:19:21;;;;;;;11.60;9.97;;;;;;;;;;6225681;23;20452;-84
2021/03/01 15:21:54;;;;;;;15.30;11.83;;;;;;;;;;6201106;23;20379;-82
2021/03/01 15:24:24;;;;;;;17.13;11.60;;;;;;;;;;6227229;23;20457;-82
2021/03/01 15:26:57;;;;;;;15.63;10.53;;;;;;;;;;6203197;23;20384;-82
2021/03/01 15:29:33;;;;;;;;;;;;;;;;;;;;;
2021/03/01 15:32:00;;;;;;;15.93;11.10;;;;;;;;;;6224225;23;20402;-82
2021/03/01 15:34:26;;;;;;;19.37;12.10;;;;;;;;;;6197976;23;20445;-82
2021/03/01 15:36:55;;;;;;;17.03;10.73;;;;;;;;;;6223912;23;20411;-83
2021/03/01 15:39:22;;;;;;;11.57;10.20;;;;;;;;;;6198619;23;20469;-83
2021/03/01 15:41:48;;;;;;;10.90;9.70;;;;;;;;;;6199927;23;20384;-80
2021/03/01 15:44:15;;;;;;;11.57;9.53;;;;;;;;;;6223648;23;20480;-84
2021/03/01 15:46:43;;;;;;;13.20;9.43;;;;;;;;;;6228101;23;20385;-81
2021/03/01 15:49:15;;;;;;;11.97;10.13;;;;;;;;;;6238280;23;20346;-83
2021/03/01 15:51:43;;;;;;;14.37;9.30;;;;;;;;;;6241474;23;20394;-80
2021/03/01 15:54:29;;;;;;;12.77;8.40;;;;;;;;;;6239896;23;20396;-79
2021/03/01 15:57:30;;;;;;;;;;;;;;;;;;;;;
2021/03/01 16:00:42;;;;;;;11.80;10.57;;;;;;;;;;6220607;23;20392;-81
2021/03/01 16:03:38;;;;;;;10.00;9.10;;;;;;;;;;6196992;23;20401;-82
2021/03/01 16:06:58;;;;;;;14.33;11.67;;;;;;;;;;6223913;23;20882;-80
2021/03/01 16:13:31;;;;;;;12.47;10.13;;;;;;;;;;6131141;23;20431;-81
2021/03/01 16:16:26;;;;;;;;;;;;;;;;;;;;;
2021/03/01 16:20:09;;;;;;;;;;;;;;;;;;;;;
2021/03/01 16:23:41;;;;;;;;;;;;;;;;;;;;;
2021/03/01 16:30:36;;;;;;;;;;;;;;;;;;;;;
2021/03/01 16:34:09;;;;;;;;;;;;;;;;;;;;;
2021/03/01 16:37:32;;;;;;;;;;;;;;;;;;;;;
2021/03/01 16:40:55;;;;;;;13.23;10.17;;;;;;;;;;6101779;23;20432;-80
2021/03/01 16:44:28;;;;;;;;;;;;;;;;;;;;;
2021/03/01 16:54:28;;;;;;;17.90;11.70;;;;;;;;;;6132547;23;20533;-81
2021/03/01 17:15:16;;;;;;;12.50;11.17;;;;;;;;;;6068764;23;20463;-81
2021/03/01 17:43:23;;;;;;;12.80;10.07;;;;;;;;;;5962011;24;20289;-80
2021/03/01 17:46:54;;;;;;;;;;;;;;;;;;;;;
2021/03/01 18:08:00;;;;;;;17.15;10.85;;;;;;;;;;6164118;23;20171;-85
2021/03/01 18:30:10;;;;;;;;;;;;;;;;;;;;;
2021/03/01 19:17:06;;;;;;;23.42;18.85;;;;;;;;;;6101483;23;20180;-82
2021/03/01 19:19:32;;;;;;;23.33;15.82;;;;;;;;;;6100720;23;20350;-82
2021/03/01 19:22:03;;;;;;;20.83;14.93;;;;;;;;;;6078984;23;20149;-82
2021/03/01 19:24:29;;;;;;;18.80;14.40;;;;;;;;;;6077422;23;20157;-82
2021/03/01 19:26:55;;;;;;;14.25;12.32;;;;;;;;;;6099662;23;20213;-82
2021/03/01 19:29:21;;;;;;;26.98;16.55;;;;;;;;;;6099397;23;20274;-83
2021/03/01 19:31:48;;;;;;;19.25;15.88;;;;;;;;;;6051873;23;20153;-80
2021/03/01 19:34:16;;;;;;;21.38;14.50;;;;;;;;;;6051402;23;20161;-80
2021/03/01 19:36:43;;;;;;;18.15;13.55;;;;;;;;;;6051593;23;20671;-82
2021/03/01 19:39:10;;;;;;;16.23;14.15;;;;;;;;;;6051141;23;20633;-81
2021/03/01 19:41:37;;;;;;;21.05;15.60;;;;;;;;;;6076280;23;20156;-81
2021/03/01 19:44:04;;;;;;;23.73;16.30;;;;;;;;;;6075430;23;20150;-81
2021/03/01 19:46:31;;;;;;;25.02;18.65;;;;;;;;;;6075191;23;20156;-82
2021/03/01 19:48:57;;;;;;;21.33;15.13;;;;;;;;;;6073629;23;20650;-82
2021/03/01 19:51:25;;;;;;;16.73;14.70;;;;;;;;;;6050394;23;20212;-81
2021/03/01 19:53:51;;;;;;;19.95;16.58;;;;;;;;;;6145064;23;20146;-83
2021/03/01 19:56:17;;;;;;;18.17;15.55;;;;;;;;;;6250846;23;20143;-81
2021/03/01 19:58:46;;;;;;;27.80;15.70;;;;;;;;;;6250387;23;20139;-80
2021/03/01 20:01:15;;;;;;;22.67;15.65;;;;;;;;;;6252767;23;20130;-81
2021/03/01 20:03:42;;;;;;;21.40;16.67;;;;;;;;;;6225273;23;20146;-81
2021/03/01 20:06:08;;;;;;;21.95;16.10;;;;;;;;;;6224489;23;20589;-82
2021/03/01 20:08:37;;;;;;;18.30;16.40;;;;;;;;;;6251950;23;20595;-81
2021/03/01 20:11:07;;;;;;;17.25;14.80;;;;;;;;;;6251349;23;20146;-82
2021/03/01 20:13:36;;;;;;;27.15;18.88;;;;;;;;;;6224610;23;20142;-81
2021/03/01 20:16:02;;;;;;;21.55;16.85;;;;;;;;;;6198785;23;20461;-81
2021/03/01 20:18:31;;;;;;;24.00;14.77;;;;;;;;;;6222634;23;20571;-80
2021/03/01 20:20:58;;;;;;;22.88;16.83;;;;;;;;;;6199459;23;20446;-80
2021/03/01 20:23:24;;;;;;;21.55;15.55;;;;;;;;;;6199641;23;20143;-79
2021/03/01 20:25:53;;;;;;;29.55;21.13;;;;;;;;;;6199231;23;20198;-81
2021/03/01 20:28:51;;;;;;;21.70;16.25;;;;;;;;;;6225185;23;20592;-78
2021/03/01 20:32:04;;;;;;;;;;;;;;;;;;;;;
2021/03/01 20:42:19;;;;;;;21.52;18.05;;;;;;;;;;6102915;23;20562;-78
2021/03/01 20:45:17;;;;;;;;;;;;;;;;;;;;;
2021/03/01 20:48:12;;;;;;;20.13;14.68;;;;;;;;;;6212672;22;20178;-81
2021/03/01 20:58:32;;;;;;;26.05;18.77;;;;;;;;;;5990884;23;20247;-78
2021/03/01 21:01:30;;;;;;;22.55;16.08;;;;;;;;;;5990337;23;20187;-79
2021/03/01 21:04:59;;;;;;;;;;;;;;;;;;;;;
2021/03/01 21:07:55;;;;;;;22.13;17.45;;;;;;;;;;5975398;23;20162;-80
2021/03/01 21:11:28;;;;;;;18.80;15.73;;;;;;;;;;6021893;23;20182;-81
2021/03/01 21:18:06;;;;;;;;;;;;;;;;;;;;;
2021/03/01 21:21:27;;;;;;;20.77;14.65;;;;;;;;;;5962910;24;20172;-80